Disney Wonder — C6QM8 — position and weather

sailwx.info

Track history (hours):
 
Tides and Currents Weather Stations Pressure Air Temp Water Temp Dewpoint Dewpoint Depression Visibility Wind Speed Wind Dir Waves Ship Positions

Disney Wonder

Last reported at 2017-Sep-19 19:00 UTC. Time now 2017-Sep-20 00:33 UTC.
Position N 26°18' W 114°00'.

Length 301 m; draft 8.2 m.

Type: Passenger vessel. MMSI: 308457000.

Wind from 330 at 13 knots

Barometer 1014.0 mb
Air temperature 22.3 ° C
Visibility: greater than 10.8 NM
Dewpoint 18.7 ° C
Water temperature 22.5 ° C

Date/timePositionNaut miles runAvg speedWind from/ knotsBaromVisibWave heightAir tempDewpointWater temp
2017-Sep-19 19:00N 26°18' W 114°00'5326.5 330 / 131014.010.8 22.318.722.5
2017-Sep-19 17:00N 27°00' W 114°36'25236.1 320 / 121013.010.8 20.018.419.0
2017-Sep-19 10:00N 30°54' W 112°48'19899.1 360 / 121013.010.8 20.0
2017-Sep-19 08:00N 29°06' W 116°00'15021.4 320 / 171014.010.8 19.515.321.3
2017-Sep-19 01:00N 31°30' W 116°48'21 4.1 310 / 121014.010.8 21.0
2017-Sep-18 20:00N 31°48' W 116°36'10 1.5 280 / 161014.010.8 22.015.021.0
2017-Sep-18 13:00N 31°48' W 116°48'31 7.8 1013.010.8 19.015.1
2017-Sep-18 09:00N 32°06' W 117°18'14 5.4 310 / 121014.010.8 19.515.819.0
2017-Sep-18 06:23N 32°16' W 117°30'3 7.2
2017-Sep-18 06:01N 32°19' W 117°31'4 7.1
2017-Sep-18 05:30N 32°22' W 117°33'3 6.9
2017-Sep-18 05:01N 32°25' W 117°34'4231.1
2017-Sep-18 05:00N 32°24' W 117°30'612.8 320 / 91014.010.8 19.015.620.0
2017-Sep-18 04:30N 32°28' W 117°35'3 6.1
2017-Sep-18 04:01N 32°30' W 117°33'4 7.0
2017-Sep-18 03:31N 32°32' W 117°29'3 7.0
2017-Sep-18 03:01N 32°33' W 117°25'3 6.9
2017-Sep-18 02:30N 32°34' W 117°21'3 7.0
2017-Sep-18 02:01N 32°36' W 117°18'3 6.5
2017-Sep-18 01:31N 32°37' W 117°14'4 7.8
2017-Sep-18 01:00N 32°41' W 117°14'3 6.5
2017-Sep-18 00:30N 32°43' W 117°11'0 0.7
2017-Sep-18 00:00N 32°43' W 117°10'0 0.0
2017-Sep-17 23:24N 32°43' W 117°10'0 0.0
2017-Sep-17 23:00N 32°43' W 117°10'0 0.0
2017-Sep-17 22:24N 32°43' W 117°10'0 0.0
2017-Sep-17 21:54N 32°43' W 117°10'0 0.0
2017-Sep-17 21:18N 32°43' W 117°10'0 0.0
2017-Sep-17 21:00N 32°43' W 117°10'0 0.0
2017-Sep-17 20:30N 32°43' W 117°10'0 0.0
2017-Sep-17 19:54N 32°43' W 117°10'0 0.0
2017-Sep-17 19:27N 32°43' W 117°10'0 0.0
2017-Sep-17 18:54N 32°43' W 117°10'0 0.0
2017-Sep-17 18:24N 32°43' W 117°10'0 0.0
2017-Sep-17 18:00N 32°43' W 117°10'0 0.0
2017-Sep-17 17:30N 32°43' W 117°10'0 0.0
2017-Sep-17 17:00N 32°43' W 117°10'0 0.0
2017-Sep-17 16:24N 32°43' W 117°10'0 0.0
2017-Sep-17 16:00N 32°43' W 117°10'0 0.0
2017-Sep-17 15:30N 32°43' W 117°10'0 0.0
2017-Sep-17 14:48N 32°43' W 117°10'0 0.0
2017-Sep-17 14:30N 32°43' W 117°10'0 0.0
2017-Sep-17 14:00N 32°43' W 117°10'0 0.7
2017-Sep-17 13:30N 32°43' W 117°11'4 8.2
2017-Sep-17 13:00N 32°40' W 117°14'4 8.2
2017-Sep-17 12:30N 32°36' W 117°16'4 8.9
2017-Sep-17 12:00N 32°35' W 117°21'3 6.9
2017-Sep-17 11:30N 32°33' W 117°24'3 6.8
2017-Sep-17 11:00N 32°33' W 117°28'3 6.4
2017-Sep-17 10:30N 32°31' W 117°31'3 7.0
2017-Sep-17 10:00N 32°27' W 117°33'4 7.3
2017-Sep-17 09:30N 32°24' W 117°34'4 7.2
2017-Sep-17 09:00N 32°20' W 117°33'11860.1
2017-Sep-17 09:00N 32°12' W 117°24'815.7 280 / 81013.010.8 19.213.621.5
2017-Sep-17 08:31N 32°17' W 117°31'4 7.1
2017-Sep-17 07:59N 32°14' W 117°28'3 7.0
2017-Sep-17 07:30N 32°12' W 117°25'4 7.0
2017-Sep-17 06:59N 32°09' W 117°22'17 8.3
2017-Sep-17 05:00N 32°00' W 117°06'24 5.9 300 / 41013.010.8 20.014.919.0
2017-Sep-17 01:00N 31°48' W 116°42'12 0.9 080 / 41011.010.8 20.0
2017-Sep-16 12:00N 31°54' W 116°54'8 7.9 080 / 41013.010.8 20.0
2017-Sep-16 11:00N 32°00' W 117°00'2110.6 270 / 91013.010.8 20.014.921.0
2017-Sep-16 09:00N 32°06' W 117°24'10 6.3 270 / 91013.010.8 20.014.921.0
2017-Sep-16 07:24N 32°15' W 117°29'3 8.5
2017-Sep-16 07:00N 32°18' W 117°31'4 8.6
2017-Sep-16 06:30N 32°22' W 117°33'4 7.8
2017-Sep-16 06:00N 32°25' W 117°35'3 6.3
2017-Sep-16 05:30N 32°28' W 117°36'4 7.3
2017-Sep-16 05:00N 32°26' W 117°40'4 8.8
2017-Sep-16 04:30N 32°29' W 117°36'4 8.4
2017-Sep-16 04:00N 32°31' W 117°32'3 6.7
2017-Sep-16 03:30N 32°32' W 117°28'3 6.5
2017-Sep-16 03:00N 32°33' W 117°24'3 6.4
2017-Sep-16 02:30N 32°34' W 117°21'3 6.6
2017-Sep-16 02:00N 32°35' W 117°17'3 6.3
2017-Sep-16 01:30N 32°37' W 117°14'4 7.3
2017-Sep-16 01:00N 32°41' W 117°14'3 6.9
2017-Sep-16 00:30N 32°43' W 117°11'0 0.6
2017-Sep-16 00:00N 32°43' W 117°10'0 0.0
2017-Sep-15 23:27N 32°43' W 117°10'0 0.0
2017-Sep-15 22:54N 32°43' W 117°10'0 0.0
2017-Sep-15 22:30N 32°43' W 117°10'0 0.0
2017-Sep-15 21:54N 32°43' W 117°10'0 0.0
2017-Sep-15 21:27N 32°43' W 117°10'0 0.0
2017-Sep-15 21:00N 32°43' W 117°10'0 0.0
2017-Sep-15 20:30N 32°43' W 117°10'0 0.0
2017-Sep-15 20:00N 32°43' W 117°10'0 0.0
2017-Sep-15 19:30N 32°43' W 117°10'0 0.0
2017-Sep-15 18:54N 32°43' W 117°10'0 0.0
2017-Sep-15 18:30N 32°43' W 117°10'0 0.0
2017-Sep-15 17:54N 32°43' W 117°10'0 0.0
2017-Sep-15 17:30N 32°43' W 117°10'0 0.0
2017-Sep-15 17:00N 32°43' W 117°10'0 0.0
2017-Sep-15 16:30N 32°43' W 117°10'0 0.0
2017-Sep-15 16:00N 32°43' W 117°10'0 0.0
2017-Sep-15 15:30N 32°43' W 117°10'0 0.0
2017-Sep-15 15:00N 32°43' W 117°10'0 0.0
2017-Sep-15 14:30N 32°43' W 117°10'0 0.0
2017-Sep-15 14:00N 32°43' W 117°10'0 0.0
2017-Sep-15 13:30N 32°43' W 117°10'0 0.0
2017-Sep-15 13:00N 32°43' W 117°10'0 0.2
2017-Sep-15 12:30N 32°43' W 117°11'3 6.1
2017-Sep-15 12:00N 32°42' W 117°14'5 9.9
2017-Sep-15 11:30N 32°37' W 117°14'510.3
2017-Sep-15 11:01N 32°38' W 117°20'917.0
2017-Sep-15 10:31N 32°41' W 117°29'816.9
2017-Sep-15 10:01N 32°45' W 117°38'917.1
2017-Sep-15 09:31N 32°49' W 117°47'816.8
2017-Sep-15 09:01N 32°52' W 117°56'13789.3
2017-Sep-15 09:00N 32°54' W 118°12'611.9 270 / 131013.010.8 19.515.321.0
2017-Sep-15 08:30N 32°56' W 118°06'816.9
2017-Sep-15 08:01N 32°59' W 118°15'816.9
2017-Sep-15 07:31N 33°03' W 118°24'1316.9
2017-Sep-15 06:46N 33°08' W 118°37'1016.8
2017-Sep-15 06:11N 33°13' W 118°48'316.5
2017-Sep-15 06:00N 33°14' W 118°51'916.6
2017-Sep-15 05:27N 33°18' W 119°01'716.8
2017-Sep-15 05:00N 33°21' W 119°09'4247.7
2017-Sep-15 05:00N 33°18' W 119°06'1225.3 290 / 121013.510.8 20.014.918.0
2017-Sep-15 04:31N 33°24' W 119°19'917.3
2017-Sep-15 04:00N 33°27' W 119°28'917.3
2017-Sep-15 03:31N 33°32' W 119°37'917.5
2017-Sep-15 03:00N 33°36' W 119°47'917.2
2017-Sep-15 02:30N 33°40' W 119°56'917.4
2017-Sep-15 01:59N 33°44' W 120°06'817.2
2017-Sep-15 01:31N 33°47' W 120°14'917.4
2017-Sep-15 01:00N 33°51' W 120°24'816.8
2017-Sep-15 00:30N 33°55' W 120°33'917.2
2017-Sep-15 00:00N 33°60' W 120°42'033.5
2017-Sep-15 00:00N 34°00' W 120°42'816.6 310 / 121014.010.8 19.0
2017-Sep-14 23:30N 34°07' W 120°48'917.2
2017-Sep-14 23:01N 34°14' W 120°53'917.0
2017-Sep-14 22:31N 34°21' W 120°58'917.0
2017-Sep-14 22:01N 34°28' W 121°04'917.5
2017-Sep-14 21:30N 34°36' W 121°10'917.7
2017-Sep-14 21:00N 34°43' W 121°15'13858.8
2017-Sep-14 21:00N 34°54' W 121°24'4 8.7 330 / 101012.010.8 18.017.717.5
2017-Sep-14 20:30N 34°51' W 121°21'816.9
2017-Sep-14 20:01N 34°58' W 121°27'917.3
2017-Sep-14 19:31N 35°05' W 121°32'1017.2
2017-Sep-14 18:57N 35°13' W 121°39'817.2
2017-Sep-14 18:30N 35°19' W 121°44'1017.0
2017-Sep-14 17:54N 35°28' W 121°51'717.2
2017-Sep-14 17:30N 35°34' W 121°55'917.3
2017-Sep-14 17:00N 35°41' W 122°01'1174.8
2017-Sep-14 17:00N 35°42' W 122°00'917.8 330 / 121014.510.8 18.014.617.7
2017-Sep-14 16:30N 35°49' W 122°07'5019.1
2017-Sep-14 13:54N 36°31' W 122°39'821.2
2017-Sep-14 13:31N 36°39' W 122°43'1630.2
2017-Sep-14 13:00N 36°54' W 122°48'489.0 300 / 151013.0 16.0
2017-Sep-14 12:57N 36°50' W 122°49'921.1
2017-Sep-14 12:31N 36°58' W 122°54'1020.7
2017-Sep-14 12:00N 37°07' W 122°60'1020.7
2017-Sep-14 11:30N 37°17' W 123°05'3567.6
2017-Sep-14 11:00N 37°06' W 122°24'5297.7 310 / 221012.010.8 15.512.815.5
2017-Sep-14 10:27N 37°37' W 123°17'1021.1
2017-Sep-14 09:58N 37°46' W 123°23'920.9
2017-Sep-14 09:30N 37°55' W 123°28'1121.0
2017-Sep-14 09:00N 38°04' W 123°34'1121.6
2017-Sep-14 08:31N 38°14' W 123°40'1121.7
2017-Sep-14 08:01N 38°24' W 123°45'1221.5
2017-Sep-14 07:26N 38°35' W 123°52'14719.7
2017-Sep-14 00:00N 40°54' W 124°54'6622.1 360 / 201014.0 19.013.8
2017-Sep-13 21:00N 42°00' W 125°00'8421.0 330 / 321017.010.8 17.513.117.0
2017-Sep-13 17:00N 43°24' W 124°54'9122.7 010 / 161016.010.8 22.013.414.0
2017-Sep-13 13:00N 44°54' W 125°12'8421.0 360 / 201016.0 20.0
2017-Sep-13 09:00N 46°18' W 125°18'7819.5 330 / 231017.010.8 15.511.817.5
2017-Sep-13 05:00N 47°36' W 125°18'2924.4 320 / 291017.010.8 16.012.414.0
2017-Sep-13 03:49N 48°05' W 125°13'920.7
2017-Sep-13 03:24N 48°13' W 125°10'1819.7
2017-Sep-13 02:28N 48°30' W 125°00'817.6
2017-Sep-13 02:00N 48°31' W 124°48'1020.3
2017-Sep-13 01:31N 48°28' W 124°33'1020.2
2017-Sep-13 01:01N 48°24' W 124°19'1020.1
2017-Sep-13 00:30N 48°20' W 124°05'1020.3
2017-Sep-13 00:00N 48°17' W 123°51'1020.9
2017-Sep-12 23:30N 48°16' W 123°35'918.1
2017-Sep-12 23:00N 48°22' W 123°26'3 6.9
2017-Sep-12 22:30N 48°25' W 123°23'0 0.1
2017-Sep-12 21:59N 48°25' W 123°23'0 0.0
2017-Sep-12 21:29N 48°25' W 123°23'0 0.0
2017-Sep-12 20:59N 48°25' W 123°23'0 0.0
2017-Sep-12 20:29N 48°25' W 123°23'0 0.0
2017-Sep-12 19:59N 48°25' W 123°23'0 0.0
2017-Sep-12 19:29N 48°25' W 123°23'0 0.0
2017-Sep-12 18:59N 48°25' W 123°23'0 0.0
2017-Sep-12 18:29N 48°25' W 123°23'0 0.0
2017-Sep-12 17:59N 48°25' W 123°23'0 0.0
2017-Sep-12 17:29N 48°25' W 123°23'0 0.0
2017-Sep-12 16:59N 48°25' W 123°23'0 0.0
2017-Sep-12 16:29N 48°25' W 123°23'0 0.0
2017-Sep-12 15:59N 48°25' W 123°23'0 0.0
2017-Sep-12 15:29N 48°25' W 123°23'0 0.0
2017-Sep-12 14:59N 48°25' W 123°23'0 0.0
2017-Sep-12 14:29N 48°25' W 123°23'0 0.0
2017-Sep-12 13:59N 48°25' W 123°23'0 0.0
2017-Sep-12 13:29N 48°25' W 123°23'0 0.2
2017-Sep-12 13:00N 48°25' W 123°23'2 3.8
2017-Sep-12 12:30N 48°23' W 123°23'4 8.7
2017-Sep-12 12:00N 48°24' W 123°16'5 9.0
2017-Sep-12 11:30N 48°27' W 123°12'510.7
2017-Sep-12 11:00N 48°32' W 123°13'510.7
2017-Sep-12 10:30N 48°38' W 123°14'510.5
2017-Sep-12 10:00N 48°43' W 123°17'3 6.3
2017-Sep-12 09:30N 48°46' W 123°19'4 8.4
2017-Sep-12 09:00N 48°44' W 123°13'4 8.9
2017-Sep-12 08:30N 48°45' W 123°07'4 8.9
2017-Sep-12 08:00N 48°47' W 123°01'4 7.3
2017-Sep-12 07:30N 48°51' W 123°03'3 6.6
2017-Sep-12 07:00N 48°53' W 123°05'2 4.3
2017-Sep-12 06:30N 48°52' W 123°04'3 7.0
2017-Sep-12 06:00N 48°54' W 123°08'4 7.3
2017-Sep-12 05:30N 48°56' W 123°12'3 6.8
2017-Sep-12 05:00N 48°58' W 123°16'5422.7
2017-Sep-12 05:00N 48°54' W 123°12'816.9 020 / 31016.510.8 18.014.617.0
2017-Sep-12 04:30N 49°01' W 123°20'3 6.7
2017-Sep-12 04:00N 49°03' W 123°23'3 6.1
2017-Sep-12 03:30N 49°06' W 123°25'3 6.6
2017-Sep-12 03:00N 49°09' W 123°24'3 6.5
2017-Sep-12 02:30N 49°12' W 123°22'3 6.5
2017-Sep-12 02:00N 49°15' W 123°21'3 6.3
2017-Sep-12 01:30N 49°18' W 123°19'3 6.3
2017-Sep-12 01:00N 49°19' W 123°14'3 6.3
2017-Sep-12 00:30N 49°19' W 123°09'2 4.6
2017-Sep-11 23:58N 49°17' W 123°07'0 0.0
2017-Sep-11 23:25N 49°17' W 123°07'0 0.0
2017-Sep-11 22:58N 49°17' W 123°07'0 0.0
2017-Sep-11 22:28N 49°17' W 123°07'0 0.0
2017-Sep-11 21:58N 49°17' W 123°07'0 0.0
2017-Sep-11 21:28N 49°17' W 123°07'0 0.0
2017-Sep-11 20:58N 49°17' W 123°07'0 0.0
2017-Sep-11 20:28N 49°17' W 123°07'0 0.0
2017-Sep-11 19:58N 49°17' W 123°07'0 0.0
2017-Sep-11 19:28N 49°17' W 123°07'0 0.0
2017-Sep-11 18:58N 49°17' W 123°07'0 0.0
2017-Sep-11 18:25N 49°17' W 123°07'0 0.0
2017-Sep-11 17:58N 49°17' W 123°07'0 0.0
2017-Sep-11 17:28N 49°17' W 123°07'0 0.0
2017-Sep-11 16:52N 49°17' W 123°07'0 0.0
2017-Sep-11 16:28N 49°17' W 123°07'0 0.0
2017-Sep-11 15:58N 49°17' W 123°07'0 0.0
2017-Sep-11 15:28N 49°17' W 123°07'0 0.0
2017-Sep-11 14:58N 49°17' W 123°07'0 0.0
2017-Sep-11 14:28N 49°17' W 123°07'0 0.0
2017-Sep-11 14:00N 49°17' W 123°07'0 0.5
2017-Sep-11 13:30N 49°18' W 123°06'3 6.2
2017-Sep-11 13:00N 49°19' W 123°11'4 8.8
2017-Sep-11 12:30N 49°18' W 123°17'4 8.3
2017-Sep-11 12:00N 49°18' W 123°24'4 8.4
2017-Sep-11 11:30N 49°18' W 123°30'4 8.7
2017-Sep-11 11:00N 49°18' W 123°37'4 8.8
2017-Sep-11 10:30N 49°19' W 123°43'5 9.2
2017-Sep-11 10:01N 49°20' W 123°50'510.3
2017-Sep-11 09:30N 49°22' W 123°58'510.3
2017-Sep-11 09:00N 49°23' W 124°06'4237.2
2017-Sep-11 09:00N 49°24' W 124°00'918.0 110 / 141024.010.8 16.012.018.0
2017-Sep-11 08:30N 49°24' W 124°13'510.3
2017-Sep-11 08:00N 49°26' W 124°21'510.4
2017-Sep-11 07:30N 49°29' W 124°28'510.2
2017-Sep-11 07:00N 49°32' W 124°33'510.5
2017-Sep-11 06:30N 49°36' W 124°38'510.6
2017-Sep-11 06:00N 49°40' W 124°43'510.4
2017-Sep-11 05:30N 49°44' W 124°49'713.1
2017-Sep-11 05:00N 49°49' W 124°56'7463.0
2017-Sep-11 05:00N 49°42' W 124°54'1530.4 130 / 131023.510.8 16.014.316.0
2017-Sep-11 04:31N 49°55' W 125°05'714.5
2017-Sep-11 04:00N 50°00' W 125°12'713.1
2017-Sep-11 03:30N 50°06' W 125°18'713.0
2017-Sep-11 03:00N 50°12' W 125°22'917.2
2017-Sep-11 02:30N 50°20' W 125°26'5717.4
2017-Sep-10 23:14N 50°39' W 126°50'520.8
2017-Sep-10 22:58N 50°42' W 126°58'920.3
2017-Sep-10 22:30N 50°46' W 127°11'1019.8
2017-Sep-10 22:00N 50°50' W 127°25'1019.7
2017-Sep-10 21:30N 50°55' W 127°39'1019.7
2017-Sep-10 21:00N 51°01' W 127°51'14979.0
2017-Sep-10 21:00N 51°06' W 128°12'511.2 130 / 351017.0 2.2 12.011.017.5
2017-Sep-10 20:30N 51°07' W 128°03'918.6
2017-Sep-10 20:00N 51°12' W 128°15'918.3
2017-Sep-10 19:30N 51°17' W 128°28'918.0
2017-Sep-10 19:00N 51°22' W 128°40'918.1
2017-Sep-10 18:30N 51°28' W 128°51'917.8
2017-Sep-10 18:00N 51°33' W 129°03'917.6
2017-Sep-10 17:30N 51°37' W 129°15'918.2
2017-Sep-10 17:00N 51°42' W 129°27'7117.7
2017-Sep-10 13:00N 52°48' W 130°12'13018.6 210 / 201018.0 5.4 14.014.0
2017-Sep-10 06:00N 54°54' W 131°06'   170 / 101013.5 5.4 17.011.510.0
Track history (hours):
 
Tides and Currents Weather Stations Pressure Air Temp Water Temp Dewpoint Dewpoint Depression Visibility Wind Speed Wind Dir Waves Ship Positions

Disney Wonder

Last reported at 2017-Sep-19 19:00 UTC. Time now 2017-Sep-20 00:33 UTC.
Position N 26°18' W 114°00'.

Length 301 m; draft 8.2 m.

Type: Passenger vessel. MMSI: 308457000.

Wind from 330 at 13 knots

Barometer 1014.0 mb
Air temperature 22.3 ° C
Visibility: greater than 10.8 NM
Dewpoint 18.7 ° C
Water temperature 22.5 ° C

Date/timePositionNaut miles runAvg speedWind from/ knotsBaromVisibWave heightAir tempDewpointWater temp
2017-Sep-19 19:00N 26°18' W 114°00'5326.5 330 / 131014.010.8 22.318.722.5
2017-Sep-19 17:00N 27°00' W 114°36'25236.1 320 / 121013.010.8 20.018.419.0
2017-Sep-19 10:00N 30°54' W 112°48'19899.1 360 / 121013.010.8 20.0
2017-Sep-19 08:00N 29°06' W 116°00'15021.4 320 / 171014.010.8 19.515.321.3
2017-Sep-19 01:00N 31°30' W 116°48'21 4.1 310 / 121014.010.8 21.0
2017-Sep-18 20:00N 31°48' W 116°36'10 1.5 280 / 161014.010.8 22.015.021.0
2017-Sep-18 13:00N 31°48' W 116°48'31 7.8 1013.010.8 19.015.1
2017-Sep-18 09:00N 32°06' W 117°18'14 5.4 310 / 121014.010.8 19.515.819.0
2017-Sep-18 06:23N 32°16' W 117°30'3 7.2
2017-Sep-18 06:01N 32°19' W 117°31'4 7.1
2017-Sep-18 05:30N 32°22' W 117°33'3 6.9
2017-Sep-18 05:01N 32°25' W 117°34'4231.1
2017-Sep-18 05:00N 32°24' W 117°30'612.8 320 / 91014.010.8 19.015.620.0
2017-Sep-18 04:30N 32°28' W 117°35'3 6.1
2017-Sep-18 04:01N 32°30' W 117°33'4 7.0
2017-Sep-18 03:31N 32°32' W 117°29'3 7.0
2017-Sep-18 03:01N 32°33' W 117°25'3 6.9
2017-Sep-18 02:30N 32°34' W 117°21'3 7.0
2017-Sep-18 02:01N 32°36' W 117°18'3 6.5
2017-Sep-18 01:31N 32°37' W 117°14'4 7.8
2017-Sep-18 01:00N 32°41' W 117°14'3 6.5
2017-Sep-18 00:30N 32°43' W 117°11'0 0.7
2017-Sep-18 00:00N 32°43' W 117°10'0 0.0
2017-Sep-17 23:24N 32°43' W 117°10'0 0.0
2017-Sep-17 23:00N 32°43' W 117°10'0 0.0
2017-Sep-17 22:24N 32°43' W 117°10'0 0.0
2017-Sep-17 21:54N 32°43' W 117°10'0 0.0
2017-Sep-17 21:18N 32°43' W 117°10'0 0.0
2017-Sep-17 21:00N 32°43' W 117°10'0 0.0
2017-Sep-17 20:30N 32°43' W 117°10'0 0.0
2017-Sep-17 19:54N 32°43' W 117°10'0 0.0
2017-Sep-17 19:27N 32°43' W 117°10'0 0.0
2017-Sep-17 18:54N 32°43' W 117°10'0 0.0
2017-Sep-17 18:24N 32°43' W 117°10'0 0.0
2017-Sep-17 18:00N 32°43' W 117°10'0 0.0
2017-Sep-17 17:30N 32°43' W 117°10'0 0.0
2017-Sep-17 17:00N 32°43' W 117°10'0 0.0
2017-Sep-17 16:24N 32°43' W 117°10'0 0.0
2017-Sep-17 16:00N 32°43' W 117°10'0 0.0
2017-Sep-17 15:30N 32°43' W 117°10'0 0.0
2017-Sep-17 14:48N 32°43' W 117°10'0 0.0
2017-Sep-17 14:30N 32°43' W 117°10'0 0.0
2017-Sep-17 14:00N 32°43' W 117°10'0 0.7
2017-Sep-17 13:30N 32°43' W 117°11'4 8.2
2017-Sep-17 13:00N 32°40' W 117°14'4 8.2
2017-Sep-17 12:30N 32°36' W 117°16'4 8.9
2017-Sep-17 12:00N 32°35' W 117°21'3 6.9
2017-Sep-17 11:30N 32°33' W 117°24'3 6.8
2017-Sep-17 11:00N 32°33' W 117°28'3 6.4
2017-Sep-17 10:30N 32°31' W 117°31'3 7.0
2017-Sep-17 10:00N 32°27' W 117°33'4 7.3
2017-Sep-17 09:30N 32°24' W 117°34'4 7.2
2017-Sep-17 09:00N 32°20' W 117°33'11860.1
2017-Sep-17 09:00N 32°12' W 117°24'815.7 280 / 81013.010.8 19.213.621.5
2017-Sep-17 08:31N 32°17' W 117°31'4 7.1
2017-Sep-17 07:59N 32°14' W 117°28'3 7.0
2017-Sep-17 07:30N 32°12' W 117°25'4 7.0
2017-Sep-17 06:59N 32°09' W 117°22'17 8.3
2017-Sep-17 05:00N 32°00' W 117°06'24 5.9 300 / 41013.010.8 20.014.919.0
2017-Sep-17 01:00N 31°48' W 116°42'12 0.9 080 / 41011.010.8 20.0
2017-Sep-16 12:00N 31°54' W 116°54'8 7.9 080 / 41013.010.8 20.0
2017-Sep-16 11:00N 32°00' W 117°00'2110.6 270 / 91013.010.8 20.014.921.0
2017-Sep-16 09:00N 32°06' W 117°24'10 6.3 270 / 91013.010.8 20.014.921.0
2017-Sep-16 07:24N 32°15' W 117°29'3 8.5
2017-Sep-16 07:00N 32°18' W 117°31'4 8.6
2017-Sep-16 06:30N 32°22' W 117°33'4 7.8
2017-Sep-16 06:00N 32°25' W 117°35'3 6.3
2017-Sep-16 05:30N 32°28' W 117°36'4 7.3
2017-Sep-16 05:00N 32°26' W 117°40'4 8.8
2017-Sep-16 04:30N 32°29' W 117°36'4 8.4
2017-Sep-16 04:00N 32°31' W 117°32'3 6.7
2017-Sep-16 03:30N 32°32' W 117°28'3 6.5
2017-Sep-16 03:00N 32°33' W 117°24'3 6.4
2017-Sep-16 02:30N 32°34' W 117°21'3 6.6
2017-Sep-16 02:00N 32°35' W 117°17'3 6.3
2017-Sep-16 01:30N 32°37' W 117°14'4 7.3
2017-Sep-16 01:00N 32°41' W 117°14'3 6.9
2017-Sep-16 00:30N 32°43' W 117°11'0 0.6
2017-Sep-16 00:00N 32°43' W 117°10'0 0.0
2017-Sep-15 23:27N 32°43' W 117°10'0 0.0
2017-Sep-15 22:54N 32°43' W 117°10'0 0.0
2017-Sep-15 22:30N 32°43' W 117°10'0 0.0
2017-Sep-15 21:54N 32°43' W 117°10'0 0.0
2017-Sep-15 21:27N 32°43' W 117°10'0 0.0
2017-Sep-15 21:00N 32°43' W 117°10'0 0.0
2017-Sep-15 20:30N 32°43' W 117°10'0 0.0
2017-Sep-15 20:00N 32°43' W 117°10'0 0.0
2017-Sep-15 19:30N 32°43' W 117°10'0 0.0
2017-Sep-15 18:54N 32°43' W 117°10'0 0.0
2017-Sep-15 18:30N 32°43' W 117°10'0 0.0
2017-Sep-15 17:54N 32°43' W 117°10'0 0.0
2017-Sep-15 17:30N 32°43' W 117°10'0 0.0
2017-Sep-15 17:00N 32°43' W 117°10'0 0.0
2017-Sep-15 16:30N 32°43' W 117°10'0 0.0
2017-Sep-15 16:00N 32°43' W 117°10'0 0.0
2017-Sep-15 15:30N 32°43' W 117°10'0 0.0
2017-Sep-15 15:00N 32°43' W 117°10'0 0.0
2017-Sep-15 14:30N 32°43' W 117°10'0 0.0
2017-Sep-15 14:00N 32°43' W 117°10'0 0.0
2017-Sep-15 13:30N 32°43' W 117°10'0 0.0
2017-Sep-15 13:00N 32°43' W 117°10'0 0.2
2017-Sep-15 12:30N 32°43' W 117°11'3 6.1
2017-Sep-15 12:00N 32°42' W 117°14'5 9.9
2017-Sep-15 11:30N 32°37' W 117°14'510.3
2017-Sep-15 11:01N 32°38' W 117°20'917.0
2017-Sep-15 10:31N 32°41' W 117°29'816.9
2017-Sep-15 10:01N 32°45' W 117°38'917.1
2017-Sep-15 09:31N 32°49' W 117°47'816.8
2017-Sep-15 09:01N 32°52' W 117°56'13789.3
2017-Sep-15 09:00N 32°54' W 118°12'611.9 270 / 131013.010.8 19.515.321.0
2017-Sep-15 08:30N 32°56' W 118°06'816.9
2017-Sep-15 08:01N 32°59' W 118°15'816.9
2017-Sep-15 07:31N 33°03' W 118°24'1316.9
2017-Sep-15 06:46N 33°08' W 118°37'1016.8
2017-Sep-15 06:11N 33°13' W 118°48'316.5
2017-Sep-15 06:00N 33°14' W 118°51'916.6
2017-Sep-15 05:27N 33°18' W 119°01'716.8
2017-Sep-15 05:00N 33°21' W 119°09'4247.7
2017-Sep-15 05:00N 33°18' W 119°06'1225.3 290 / 121013.510.8 20.014.918.0
2017-Sep-15 04:31N 33°24' W 119°19'917.3
2017-Sep-15 04:00N 33°27' W 119°28'917.3
2017-Sep-15 03:31N 33°32' W 119°37'917.5
2017-Sep-15 03:00N 33°36' W 119°47'917.2
2017-Sep-15 02:30N 33°40' W 119°56'917.4
2017-Sep-15 01:59N 33°44' W 120°06'817.2
2017-Sep-15 01:31N 33°47' W 120°14'917.4
2017-Sep-15 01:00N 33°51' W 120°24'816.8
2017-Sep-15 00:30N 33°55' W 120°33'917.2
2017-Sep-15 00:00N 33°60' W 120°42'033.5
2017-Sep-15 00:00N 34°00' W 120°42'816.6 310 / 121014.010.8 19.0
2017-Sep-14 23:30N 34°07' W 120°48'917.2
2017-Sep-14 23:01N 34°14' W 120°53'917.0
2017-Sep-14 22:31N 34°21' W 120°58'917.0
2017-Sep-14 22:01N 34°28' W 121°04'917.5
2017-Sep-14 21:30N 34°36' W 121°10'917.7
2017-Sep-14 21:00N 34°43' W 121°15'13858.8
2017-Sep-14 21:00N 34°54' W 121°24'4 8.7 330 / 101012.010.8 18.017.717.5
2017-Sep-14 20:30N 34°51' W 121°21'816.9
2017-Sep-14 20:01N 34°58' W 121°27'917.3
2017-Sep-14 19:31N 35°05' W 121°32'1017.2
2017-Sep-14 18:57N 35°13' W 121°39'817.2
2017-Sep-14 18:30N 35°19' W 121°44'1017.0
2017-Sep-14 17:54N 35°28' W 121°51'717.2
2017-Sep-14 17:30N 35°34' W 121°55'917.3
2017-Sep-14 17:00N 35°41' W 122°01'1174.8
2017-Sep-14 17:00N 35°42' W 122°00'917.8 330 / 121014.510.8 18.014.617.7
2017-Sep-14 16:30N 35°49' W 122°07'5019.1
2017-Sep-14 13:54N 36°31' W 122°39'821.2
2017-Sep-14 13:31N 36°39' W 122°43'1630.2
2017-Sep-14 13:00N 36°54' W 122°48'489.0 300 / 151013.0 16.0
2017-Sep-14 12:57N 36°50' W 122°49'921.1
2017-Sep-14 12:31N 36°58' W 122°54'1020.7
2017-Sep-14 12:00N 37°07' W 122°60'1020.7
2017-Sep-14 11:30N 37°17' W 123°05'3567.6
2017-Sep-14 11:00N 37°06' W 122°24'5297.7 310 / 221012.010.8 15.512.815.5
2017-Sep-14 10:27N 37°37' W 123°17'1021.1
2017-Sep-14 09:58N 37°46' W 123°23'920.9
2017-Sep-14 09:30N 37°55' W 123°28'1121.0
2017-Sep-14 09:00N 38°04' W 123°34'1121.6
2017-Sep-14 08:31N 38°14' W 123°40'1121.7
2017-Sep-14 08:01N 38°24' W 123°45'1221.5
2017-Sep-14 07:26N 38°35' W 123°52'14719.7
2017-Sep-14 00:00N 40°54' W 124°54'6622.1 360 / 201014.0 19.013.8
2017-Sep-13 21:00N 42°00' W 125°00'8421.0 330 / 321017.010.8 17.513.117.0
2017-Sep-13 17:00N 43°24' W 124°54'9122.7 010 / 161016.010.8 22.013.414.0
2017-Sep-13 13:00N 44°54' W 125°12'8421.0 360 / 201016.0 20.0
2017-Sep-13 09:00N 46°18' W 125°18'7819.5 330 / 231017.010.8 15.511.817.5
2017-Sep-13 05:00N 47°36' W 125°18'2924.4 320 / 291017.010.8 16.012.414.0
2017-Sep-13 03:49N 48°05' W 125°13'920.7
2017-Sep-13 03:24N 48°13' W 125°10'1819.7
2017-Sep-13 02:28N 48°30' W 125°00'817.6
2017-Sep-13 02:00N 48°31' W 124°48'1020.3
2017-Sep-13 01:31N 48°28' W 124°33'1020.2
2017-Sep-13 01:01N 48°24' W 124°19'1020.1
2017-Sep-13 00:30N 48°20' W 124°05'1020.3
2017-Sep-13 00:00N 48°17' W 123°51'1020.9
2017-Sep-12 23:30N 48°16' W 123°35'918.1
2017-Sep-12 23:00N 48°22' W 123°26'3 6.9
2017-Sep-12 22:30N 48°25' W 123°23'0 0.1
2017-Sep-12 21:59N 48°25' W 123°23'0 0.0
2017-Sep-12 21:29N 48°25' W 123°23'0 0.0
2017-Sep-12 20:59N 48°25' W 123°23'0 0.0
2017-Sep-12 20:29N 48°25' W 123°23'0 0.0
2017-Sep-12 19:59N 48°25' W 123°23'0 0.0
2017-Sep-12 19:29N 48°25' W 123°23'0 0.0
2017-Sep-12 18:59N 48°25' W 123°23'0 0.0
2017-Sep-12 18:29N 48°25' W 123°23'0 0.0
2017-Sep-12 17:59N 48°25' W 123°23'0 0.0
2017-Sep-12 17:29N 48°25' W 123°23'0 0.0
2017-Sep-12 16:59N 48°25' W 123°23'0 0.0
2017-Sep-12 16:29N 48°25' W 123°23'0 0.0
2017-Sep-12 15:59N 48°25' W 123°23'0 0.0
2017-Sep-12 15:29N 48°25' W 123°23'0 0.0
2017-Sep-12 14:59N 48°25' W 123°23'0 0.0
2017-Sep-12 14:29N 48°25' W 123°23'0 0.0
2017-Sep-12 13:59N 48°25' W 123°23'0 0.0
2017-Sep-12 13:29N 48°25' W 123°23'0 0.2
2017-Sep-12 13:00N 48°25' W 123°23'2 3.8
2017-Sep-12 12:30N 48°23' W 123°23'4 8.7
2017-Sep-12 12:00N 48°24' W 123°16'5 9.0
2017-Sep-12 11:30N 48°27' W 123°12'510.7
2017-Sep-12 11:00N 48°32' W 123°13'510.7
2017-Sep-12 10:30N 48°38' W 123°14'510.5
2017-Sep-12 10:00N 48°43' W 123°17'3 6.3
2017-Sep-12 09:30N 48°46' W 123°19'4 8.4
2017-Sep-12 09:00N 48°44' W 123°13'4 8.9
2017-Sep-12 08:30N 48°45' W 123°07'4 8.9
2017-Sep-12 08:00N 48°47' W 123°01'4 7.3
2017-Sep-12 07:30N 48°51' W 123°03'3 6.6
2017-Sep-12 07:00N 48°53' W 123°05'2 4.3
2017-Sep-12 06:30N 48°52' W 123°04'3 7.0
2017-Sep-12 06:00N 48°54' W 123°08'4 7.3
2017-Sep-12 05:30N 48°56' W 123°12'3 6.8
2017-Sep-12 05:00N 48°58' W 123°16'5422.7
2017-Sep-12 05:00N 48°54' W 123°12'816.9 020 / 31016.510.8 18.014.617.0
2017-Sep-12 04:30N 49°01' W 123°20'3 6.7
2017-Sep-12 04:00N 49°03' W 123°23'3 6.1
2017-Sep-12 03:30N 49°06' W 123°25'3 6.6
2017-Sep-12 03:00N 49°09' W 123°24'3 6.5
2017-Sep-12 02:30N 49°12' W 123°22'3 6.5
2017-Sep-12 02:00N 49°15' W 123°21'3 6.3
2017-Sep-12 01:30N 49°18' W 123°19'3 6.3
2017-Sep-12 01:00N 49°19' W 123°14'3 6.3
2017-Sep-12 00:30N 49°19' W 123°09'2 4.6
2017-Sep-11 23:58N 49°17' W 123°07'0 0.0
2017-Sep-11 23:25N 49°17' W 123°07'0 0.0
2017-Sep-11 22:58N 49°17' W 123°07'0 0.0
2017-Sep-11 22:28N 49°17' W 123°07'0 0.0
2017-Sep-11 21:58N 49°17' W 123°07'0 0.0
2017-Sep-11 21:28N 49°17' W 123°07'0 0.0
2017-Sep-11 20:58N 49°17' W 123°07'0 0.0
2017-Sep-11 20:28N 49°17' W 123°07'0 0.0
2017-Sep-11 19:58N 49°17' W 123°07'0 0.0
2017-Sep-11 19:28N 49°17' W 123°07'0 0.0
2017-Sep-11 18:58N 49°17' W 123°07'0 0.0
2017-Sep-11 18:25N 49°17' W 123°07'0 0.0
2017-Sep-11 17:58N 49°17' W 123°07'0 0.0
2017-Sep-11 17:28N 49°17' W 123°07'0 0.0
2017-Sep-11 16:52N 49°17' W 123°07'0 0.0
2017-Sep-11 16:28N 49°17' W 123°07'0 0.0
2017-Sep-11 15:58N 49°17' W 123°07'0 0.0
2017-Sep-11 15:28N 49°17' W 123°07'0 0.0
2017-Sep-11 14:58N 49°17' W 123°07'0 0.0
2017-Sep-11 14:28N 49°17' W 123°07'0 0.0
2017-Sep-11 14:00N 49°17' W 123°07'0 0.5
2017-Sep-11 13:30N 49°18' W 123°06'3 6.2
2017-Sep-11 13:00N 49°19' W 123°11'4 8.8
2017-Sep-11 12:30N 49°18' W 123°17'4 8.3
2017-Sep-11 12:00N 49°18' W 123°24'4 8.4
2017-Sep-11 11:30N 49°18' W 123°30'4 8.7
2017-Sep-11 11:00N 49°18' W 123°37'4 8.8
2017-Sep-11 10:30N 49°19' W 123°43'5 9.2
2017-Sep-11 10:01N 49°20' W 123°50'510.3
2017-Sep-11 09:30N 49°22' W 123°58'510.3
2017-Sep-11 09:00N 49°23' W 124°06'4237.2
2017-Sep-11 09:00N 49°24' W 124°00'918.0 110 / 141024.010.8 16.012.018.0
2017-Sep-11 08:30N 49°24' W 124°13'510.3
2017-Sep-11 08:00N 49°26' W 124°21'510.4
2017-Sep-11 07:30N 49°29' W 124°28'510.2
2017-Sep-11 07:00N 49°32' W 124°33'510.5
2017-Sep-11 06:30N 49°36' W 124°38'510.6
2017-Sep-11 06:00N 49°40' W 124°43'510.4
2017-Sep-11 05:30N 49°44' W 124°49'713.1
2017-Sep-11 05:00N 49°49' W 124°56'7463.0
2017-Sep-11 05:00N 49°42' W 124°54'1530.4 130 / 131023.510.8 16.014.316.0
2017-Sep-11 04:31N 49°55' W 125°05'714.5
2017-Sep-11 04:00N 50°00' W 125°12'713.1
2017-Sep-11 03:30N 50°06' W 125°18'713.0
2017-Sep-11 03:00N 50°12' W 125°22'917.2
2017-Sep-11 02:30N 50°20' W 125°26'5717.4
2017-Sep-10 23:14N 50°39' W 126°50'520.8
2017-Sep-10 22:58N 50°42' W 126°58'920.3
2017-Sep-10 22:30N 50°46' W 127°11'1019.8
2017-Sep-10 22:00N 50°50' W 127°25'1019.7
2017-Sep-10 21:30N 50°55' W 127°39'1019.7
2017-Sep-10 21:00N 51°01' W 127°51'14979.0
2017-Sep-10 21:00N 51°06' W 128°12'511.2 130 / 351017.0 2.2 12.011.017.5
2017-Sep-10 20:30N 51°07' W 128°03'918.6
2017-Sep-10 20:00N 51°12' W 128°15'918.3
2017-Sep-10 19:30N 51°17' W 128°28'918.0
2017-Sep-10 19:00N 51°22' W 128°40'918.1
2017-Sep-10 18:30N 51°28' W 128°51'917.8
2017-Sep-10 18:00N 51°33' W 129°03'917.6
2017-Sep-10 17:30N 51°37' W 129°15'918.2
2017-Sep-10 17:00N 51°42' W 129°27'7117.7
2017-Sep-10 13:00N 52°48' W 130°12'13018.6 210 / 201018.0 5.4 14.014.0
2017-Sep-10 06:00N 54°54' W 131°06'   170 / 101013.5 5.4 17.011.510.0

Dump ship's entire track history